createdAt,value
2023-01-19T00:00:29.280Z,-25
2023-01-19T00:01:35.501Z,-25
2023-01-19T00:02:41.834Z,-27
2023-01-19T00:03:48.092Z,-28
2023-01-19T00:04:54.368Z,-25
2023-01-19T00:06:00.577Z,-28
2023-01-19T00:07:05.962Z,-25
2023-01-19T00:08:11.227Z,-25
2023-01-19T00:09:16.523Z,-26
2023-01-19T00:10:21.831Z,-27
2023-01-19T00:11:27.923Z,-25
2023-01-19T00:12:34.332Z,-26
2023-01-19T00:13:40.694Z,-26
2023-01-19T00:14:46.881Z,-26
2023-01-19T00:15:53.188Z,-26
2023-01-19T00:16:59.470Z,-26
2023-01-19T00:18:05.571Z,-25
2023-01-19T00:19:12.023Z,-25
2023-01-19T00:20:18.200Z,-26
2023-01-19T00:21:24.551Z,-26
2023-01-19T00:22:30.831Z,-26
2023-01-19T00:23:37.102Z,-27
2023-01-19T00:24:42.206Z,-25
2023-01-19T00:25:48.653Z,-26
2023-01-19T00:26:54.882Z,-26
2023-01-19T00:28:01.192Z,-26
2023-01-19T00:29:07.407Z,-25
2023-01-19T00:30:13.752Z,-25
2023-01-19T00:31:19.896Z,-26
2023-01-19T00:32:25.266Z,-25
2023-01-19T00:33:30.591Z,-26
2023-01-19T00:34:36.925Z,-27
2023-01-19T00:35:43.158Z,-25
2023-01-19T00:36:49.407Z,-25
2023-01-19T00:37:54.563Z,-25
2023-01-19T00:39:00.122Z,-27
2023-01-19T00:40:06.302Z,-26
2023-01-19T00:41:12.547Z,-26
2023-01-19T00:42:18.768Z,-26
2023-01-19T00:43:24.942Z,-25
2023-01-19T00:44:31.295Z,-27
2023-01-19T00:45:37.653Z,-25
2023-01-19T00:46:43.935Z,-27
2023-01-19T00:47:50.303Z,-27
2023-01-19T00:48:56.459Z,-28
2023-01-19T00:50:02.746Z,-28
2023-01-19T00:51:08.886Z,-27
2023-01-19T00:52:15.287Z,-26
2023-01-19T00:53:20.614Z,-27
2023-01-19T00:54:26.778Z,-28
2023-01-19T00:55:33.101Z,-27
2023-01-19T00:56:39.421Z,-26
2023-01-19T00:57:45.662Z,-27
2023-01-19T00:58:51.851Z,-27
2023-01-19T00:59:58.267Z,-27
2023-01-19T01:01:04.427Z,-27
2023-01-19T01:02:10.777Z,-26
2023-01-19T01:03:16.967Z,-26
2023-01-19T01:04:23.311Z,-26
2023-01-19T01:05:29.605Z,-26
2023-01-19T01:06:35.880Z,-26
2023-01-19T01:07:41.156Z,-25
2023-01-19T01:08:46.436Z,-26
2023-01-19T01:09:52.720Z,-27
2023-01-19T01:10:59.016Z,-27
2023-01-19T01:12:04.135Z,-28
2023-01-19T01:13:09.613Z,-27
2023-01-19T01:14:15.848Z,-27
2023-01-19T01:15:22.163Z,-26
2023-01-19T01:16:28.457Z,-27
2023-01-19T01:17:34.683Z,-27
2023-01-19T01:18:40.959Z,-27
2023-01-19T01:19:47.224Z,-28
2023-01-19T01:20:53.403Z,-26
2023-01-19T01:21:59.838Z,-26
2023-01-19T01:23:06.031Z,-28
2023-01-19T01:24:12.260Z,-27
2023-01-19T01:25:18.617Z,-28
2023-01-19T01:26:24.766Z,-28
2023-01-19T01:27:30.129Z,-27
2023-01-19T01:28:36.352Z,-27
2023-01-19T01:29:42.684Z,-25
2023-01-19T01:30:48.955Z,-27
2023-01-19T01:31:55.220Z,-26
2023-01-19T01:33:01.342Z,-27
2023-01-19T01:34:07.880Z,-28
2023-01-19T01:35:13.102Z,-26
2023-01-19T01:36:18.394Z,-28
2023-01-19T01:37:23.721Z,-27
2023-01-19T01:38:28.903Z,-28
2023-01-19T01:39:35.078Z,-28
2023-01-19T01:40:41.535Z,-26
2023-01-19T01:41:47.782Z,-27
2023-01-19T01:42:53.891Z,-28
2023-01-19T01:44:00.163Z,-27
2023-01-19T01:45:06.577Z,-27
2023-01-19T01:46:12.703Z,-25
2023-01-19T01:47:18.977Z,-28
2023-01-19T01:48:25.405Z,-27
2023-01-19T01:49:31.650Z,-26
2023-01-19T01:50:37.965Z,-27
2023-01-19T01:51:44.142Z,-28
2023-01-19T01:52:49.480Z,-28
2023-01-19T01:53:55.793Z,-28
2023-01-19T01:55:02.187Z,-28
2023-01-19T01:56:08.371Z,-29
2023-01-19T01:57:14.452Z,-28
2023-01-19T01:58:20.725Z,-28
2023-01-19T01:59:27.178Z,-28
2023-01-19T02:00:33.349Z,-28
2023-01-19T02:01:39.705Z,-27
2023-01-19T02:02:45.947Z,-28
2023-01-19T02:03:52.271Z,-28
2023-01-19T02:04:58.356Z,-27
2023-01-19T02:06:04.724Z,-28
2023-01-19T02:07:10.141Z,-28
2023-01-19T02:08:16.334Z,-27
2023-01-19T02:09:22.470Z,-28
2023-01-19T02:10:28.920Z,-28
2023-01-19T02:11:35.169Z,-28
2023-01-19T02:12:41.510Z,-27
2023-01-19T02:13:47.845Z,-28
2023-01-19T02:14:53.937Z,-28
2023-01-19T02:16:00.272Z,-28
2023-01-19T02:17:06.373Z,-27
2023-01-19T02:18:12.680Z,-28
2023-01-19T02:19:19.050Z,-29
2023-01-19T02:20:25.268Z,-27
2023-01-19T02:21:30.699Z,-28
2023-01-19T02:22:36.847Z,-28
2023-01-19T02:23:43.197Z,-28
2023-01-19T02:24:49.473Z,-27
2023-01-19T02:25:55.757Z,-27
2023-01-19T02:27:01.985Z,-27
2023-01-19T02:28:08.331Z,-28
2023-01-19T02:29:14.632Z,-28
2023-01-19T02:30:20.799Z,-28
2023-01-19T02:31:26.972Z,-28
2023-01-19T02:32:33.372Z,-27
2023-01-19T02:33:39.638Z,-28
2023-01-19T02:34:46.022Z,-28
2023-01-19T02:35:51.233Z,-28
2023-01-19T02:36:57.504Z,-27
2023-01-19T02:38:02.624Z,-28
2023-01-19T02:39:07.911Z,-28
2023-01-19T02:40:14.407Z,-28
2023-01-19T02:41:19.656Z,-28
2023-01-19T02:42:24.978Z,-28
2023-01-19T02:43:31.215Z,-26
2023-01-19T02:44:37.489Z,-27
2023-01-19T02:45:43.798Z,-28
2023-01-19T02:46:50.038Z,-28
2023-01-19T02:47:56.271Z,-28
2023-01-19T02:49:02.588Z,-28
2023-01-19T02:50:08.835Z,-28
2023-01-19T02:51:15.006Z,-28
2023-01-19T02:52:21.444Z,-28
2023-01-19T02:53:27.672Z,-28
2023-01-19T02:54:33.852Z,-26
2023-01-19T02:55:40.203Z,-28
2023-01-19T02:56:45.465Z,-28
2023-01-19T02:57:51.791Z,-27
2023-01-19T02:58:58.070Z,-28
2023-01-19T03:00:04.331Z,-29
2023-01-19T03:01:10.670Z,-27
2023-01-19T03:02:16.893Z,-28
2023-01-19T03:03:22.994Z,-28
2023-01-19T03:04:29.446Z,-28
2023-01-19T03:05:35.665Z,-27
2023-01-19T03:06:41.895Z,-28
2023-01-19T03:07:48.267Z,-27
2023-01-19T03:08:54.454Z,-28
2023-01-19T03:10:00.804Z,-28
2023-01-19T03:11:06.166Z,-28
2023-01-19T03:12:12.277Z,-28
2023-01-19T03:13:18.622Z,-27
2023-01-19T03:14:24.741Z,-29
2023-01-19T03:15:30.996Z,-28
2023-01-19T03:16:37.494Z,-27
2023-01-19T03:17:43.542Z,-28
2023-01-19T03:18:49.818Z,-27
2023-01-19T03:19:56.290Z,-28
2023-01-19T03:21:02.547Z,-28
2023-01-19T03:22:08.690Z,-27
2023-01-19T03:23:14.914Z,-28
2023-01-19T03:24:21.340Z,-28
2023-01-19T03:25:26.474Z,-27
2023-01-19T03:26:32.925Z,-27
2023-01-19T03:27:39.248Z,-28
2023-01-19T03:28:45.451Z,-27
2023-01-19T03:29:51.568Z,-26
2023-01-19T03:30:56.953Z,-26
2023-01-19T03:32:02.405Z,-28
2023-01-19T03:33:08.561Z,-28
2023-01-19T03:34:14.833Z,-29
2023-01-19T03:35:20.198Z,-27
2023-01-19T03:36:25.285Z,-28
2023-01-19T03:37:31.813Z,-28
2023-01-19T03:38:38.049Z,-26
2023-01-19T03:39:44.219Z,-27
2023-01-19T03:40:50.561Z,-28
2023-01-19T03:41:56.838Z,-28
2023-01-19T03:43:03.166Z,-27
2023-01-19T03:44:09.318Z,-28
2023-01-19T03:45:15.649Z,-28
2023-01-19T03:46:22.027Z,-27
2023-01-19T03:47:28.192Z,-27
2023-01-19T03:48:34.282Z,-28
2023-01-19T03:49:40.568Z,-27
2023-01-19T03:50:46.048Z,-28
2023-01-19T03:51:52.396Z,-27
2023-01-19T03:52:58.581Z,-27
2023-01-19T03:54:04.894Z,-27
2023-01-19T03:55:11.130Z,-28
2023-01-19T03:56:17.351Z,-29
2023-01-19T03:57:23.651Z,-28
2023-01-19T03:58:28.939Z,-28
2023-01-19T03:59:34.274Z,-28
2023-01-19T04:00:39.587Z,-28
2023-01-19T04:01:44.836Z,-29
2023-01-19T04:02:50.971Z,-27
2023-01-19T04:03:57.515Z,-28
2023-01-19T04:05:03.483Z,-27
2023-01-19T04:06:09.892Z,-28
2023-01-19T04:07:16.115Z,-28
2023-01-19T04:08:22.416Z,-28
2023-01-19T04:09:28.730Z,-27
2023-01-19T04:11:41.337Z,-28
2023-01-19T04:12:47.559Z,-27
2023-01-19T04:13:53.846Z,-28
2023-01-19T04:15:00.122Z,-29
2023-01-19T04:16:05.421Z,-28
2023-01-19T04:17:11.759Z,-29
2023-01-19T04:18:17.957Z,-28
2023-01-19T04:19:24.103Z,-27
2023-01-19T04:20:30.463Z,-28
2023-01-19T04:21:36.597Z,-27
2023-01-19T04:22:43.014Z,-28
2023-01-19T04:23:49.345Z,-28
2023-01-19T04:24:54.653Z,-28
2023-01-19T04:25:59.966Z,-28
2023-01-19T04:27:06.018Z,-27
2023-01-19T04:28:12.496Z,-27
2023-01-19T04:29:18.557Z,-28
2023-01-19T04:30:25.012Z,-27
2023-01-19T04:31:30.252Z,-27
2023-01-19T04:32:35.602Z,-29
2023-01-19T04:33:41.966Z,-28
2023-01-19T04:35:54.439Z,-28
2023-01-19T04:37:00.538Z,-28
2023-01-19T04:38:06.787Z,-28
2023-01-19T04:39:13.259Z,-28
2023-01-19T04:40:19.432Z,-27
2023-01-19T04:41:25.723Z,-28
2023-01-19T04:42:32.042Z,-28
2023-01-19T04:43:38.311Z,-29
2023-01-19T04:44:44.623Z,-28
2023-01-19T04:45:50.783Z,-28
2023-01-19T04:46:56.166Z,-28
2023-01-19T04:48:02.439Z,-28
2023-01-19T04:49:08.705Z,-28
2023-01-19T04:50:14.931Z,-28
2023-01-19T04:51:21.249Z,-28
2023-01-19T04:52:27.468Z,-28
2023-01-19T04:53:33.781Z,-30
2023-01-19T04:54:40.128Z,-28
2023-01-19T04:55:45.377Z,-27
2023-01-19T04:56:50.660Z,-28
2023-01-19T04:57:55.964Z,-28
2023-01-19T04:59:01.267Z,-29
2023-01-19T05:00:07.627Z,-28
2023-01-19T05:01:13.755Z,-27
2023-01-19T05:02:19.892Z,-28
2023-01-19T05:03:26.342Z,-28
2023-01-19T05:04:32.668Z,-28
2023-01-19T05:05:38.845Z,-29
2023-01-19T05:06:45.142Z,-28
2023-01-19T05:07:51.464Z,-28
2023-01-19T05:08:56.711Z,-28
2023-01-19T05:10:03.005Z,-28
2023-01-19T05:11:09.292Z,-28
2023-01-19T05:12:15.531Z,-28
2023-01-19T05:13:21.884Z,-28
2023-01-19T05:14:28.103Z,-28
2023-01-19T05:15:34.409Z,-28
2023-01-19T05:16:40.640Z,-28
2023-01-19T05:17:46.889Z,-28
2023-01-19T05:18:53.181Z,-28
2023-01-19T05:19:59.449Z,-28
2023-01-19T05:21:05.744Z,-28
2023-01-19T05:22:12.000Z,-28
2023-01-19T05:23:17.285Z,-28
2023-01-19T05:24:23.577Z,-28
2023-01-19T05:25:29.883Z,-30
2023-01-19T05:26:36.180Z,-29
2023-01-19T05:27:42.309Z,-26
2023-01-19T05:28:48.636Z,-28
2023-01-19T05:29:54.938Z,-28
2023-01-19T05:31:01.207Z,-27
2023-01-19T05:32:07.515Z,-28
2023-01-19T05:33:13.803Z,-28
2023-01-19T05:34:19.991Z,-28
2023-01-19T05:35:26.268Z,-28
2023-01-19T05:36:32.562Z,-29
2023-01-19T05:37:37.885Z,-28
2023-01-19T05:38:43.971Z,-28
2023-01-19T05:39:50.348Z,-28
2023-01-19T05:40:56.649Z,-28
2023-01-19T05:42:02.957Z,-30
2023-01-19T05:43:09.257Z,-28
2023-01-19T05:44:15.504Z,-28
2023-01-19T05:45:21.714Z,-28
2023-01-19T05:46:28.030Z,-28
2023-01-19T05:47:34.221Z,-28
2023-01-19T05:48:40.529Z,-28
2023-01-19T05:49:46.886Z,-28
2023-01-19T05:50:53.167Z,-28
2023-01-19T05:51:58.421Z,-29
2023-01-19T05:53:04.754Z,-28
2023-01-19T05:54:10.971Z,-28
2023-01-19T05:55:17.292Z,-28
2023-01-19T05:56:23.354Z,-28
2023-01-19T05:57:29.623Z,-28
2023-01-19T05:58:36.083Z,-28
2023-01-19T05:59:42.239Z,-28
2023-01-19T06:00:48.664Z,-28
2023-01-19T06:01:54.756Z,-28
2023-01-19T06:03:01.191Z,-28
2023-01-19T06:04:07.520Z,-28
2023-01-19T06:05:13.685Z,-28
2023-01-19T06:07:25.247Z,-28
2023-01-19T06:08:31.561Z,-28
2023-01-19T06:09:37.895Z,-27
2023-01-19T06:10:44.080Z,-29
2023-01-19T06:11:50.197Z,-27
2023-01-19T06:12:56.612Z,-28
2023-01-19T06:14:02.908Z,-28
2023-01-19T06:15:09.189Z,-29
2023-01-19T06:16:15.471Z,-29
2023-01-19T06:17:21.639Z,-28
2023-01-19T06:18:27.828Z,-28
2023-01-19T06:19:34.298Z,-28
2023-01-19T06:20:39.613Z,-28
2023-01-19T06:21:45.894Z,-28
2023-01-19T06:22:52.064Z,-28
2023-01-19T06:23:58.357Z,-27
2023-01-19T06:25:04.685Z,-28
2023-01-19T06:26:09.784Z,-25
2023-01-19T06:27:15.086Z,-28
2023-01-19T06:28:21.532Z,-28
2023-01-19T06:29:27.628Z,-27
2023-01-19T06:30:33.098Z,-28
2023-01-19T06:31:38.478Z,-29
2023-01-19T06:32:44.493Z,-29
2023-01-19T06:33:50.927Z,-28
2023-01-19T06:34:57.245Z,-28
2023-01-19T06:36:03.524Z,-30
2023-01-19T06:37:09.762Z,-28
2023-01-19T06:38:16.017Z,-28
2023-01-19T06:39:22.311Z,-28
2023-01-19T06:40:28.508Z,-28
2023-01-19T06:41:34.853Z,-28
2023-01-19T06:42:41.105Z,-28
2023-01-19T06:43:47.438Z,-28
2023-01-19T06:44:53.608Z,-28
2023-01-19T06:45:58.919Z,-29
2023-01-19T06:47:05.218Z,-29
2023-01-19T06:48:11.512Z,-28
2023-01-19T06:49:17.774Z,-28
2023-01-19T06:50:24.042Z,-28
2023-01-19T06:51:30.310Z,-28
2023-01-19T06:52:36.565Z,-28
2023-01-19T06:53:41.905Z,-30
2023-01-19T06:54:47.205Z,-28
2023-01-19T06:56:59.643Z,-28
2023-01-19T06:58:05.953Z,-28
2023-01-19T06:59:12.284Z,-28
2023-01-19T07:00:17.620Z,-27
2023-01-19T07:01:22.893Z,-28
2023-01-19T07:02:29.137Z,-28
2023-01-19T07:03:35.319Z,-28
2023-01-19T07:04:41.699Z,-28
2023-01-19T07:05:47.784Z,-28
2023-01-19T07:06:54.191Z,-28
2023-01-19T07:08:00.531Z,-28
2023-01-19T07:09:06.777Z,-27
2023-01-19T07:10:13.169Z,-28
2023-01-19T07:11:19.311Z,-29
2023-01-19T07:12:25.640Z,-28
2023-01-19T07:13:31.759Z,-28
2023-01-19T07:14:38.135Z,-28
2023-01-19T07:15:43.254Z,-27
2023-01-19T07:16:49.536Z,-28
2023-01-19T07:17:55.895Z,-28
2023-01-19T07:19:02.275Z,-28
2023-01-19T07:20:08.487Z,-28
2023-01-19T07:21:14.628Z,-28
2023-01-19T07:22:21.071Z,-28
2023-01-19T07:23:27.344Z,-30
2023-01-19T07:24:33.577Z,-28
2023-01-19T07:25:39.886Z,-28
2023-01-19T07:26:46.185Z,-28
2023-01-19T07:27:52.552Z,-27
2023-01-19T07:28:58.714Z,-28
2023-01-19T07:30:03.961Z,-28
2023-01-19T07:31:10.329Z,-28
2023-01-19T07:32:16.590Z,-28
2023-01-19T07:33:22.810Z,-28
2023-01-19T07:34:29.099Z,-28
2023-01-19T07:35:35.317Z,-28
2023-01-19T07:36:41.521Z,-29
2023-01-19T07:37:47.835Z,-28
2023-01-19T07:38:54.093Z,-28
2023-01-19T07:40:00.489Z,-28
2023-01-19T07:41:06.570Z,-27
2023-01-19T07:42:12.838Z,-29
2023-01-19T07:43:19.146Z,-28
2023-01-19T07:44:24.574Z,-28
2023-01-19T07:45:30.773Z,-28
2023-01-19T07:46:37.115Z,-28
2023-01-19T07:47:43.321Z,-28
2023-01-19T07:48:48.684Z,-28
2023-01-19T07:49:53.960Z,-28
2023-01-19T07:51:00.175Z,-29
2023-01-19T07:52:06.407Z,-28
2023-01-19T07:53:11.803Z,-29
2023-01-19T07:54:17.070Z,-29
2023-01-19T07:55:23.341Z,-29
2023-01-19T07:56:29.644Z,-28
2023-01-19T07:57:35.962Z,-28
2023-01-19T07:58:42.031Z,-28
2023-01-19T07:59:48.555Z,-28
2023-01-19T08:00:54.716Z,-28
2023-01-19T08:03:07.136Z,-28
2023-01-19T08:04:13.612Z,-28
2023-01-19T08:05:19.871Z,-29
2023-01-19T08:06:25.987Z,-28
2023-01-19T08:07:32.225Z,-28
2023-01-19T08:08:37.612Z,-28
2023-01-19T08:09:43.772Z,-27
2023-01-19T08:10:50.143Z,-27
2023-01-19T08:11:56.383Z,-29
2023-01-19T08:13:02.746Z,-27
2023-01-19T08:14:08.878Z,-28
2023-01-19T08:15:15.154Z,-28
2023-01-19T08:16:21.439Z,-28
2023-01-19T08:17:27.695Z,-29
2023-01-19T08:18:33.972Z,-28
2023-01-19T08:19:40.277Z,-28
2023-01-19T08:20:46.514Z,-28
2023-01-19T08:21:52.784Z,-28
2023-01-19T08:22:58.095Z,-28
2023-01-19T08:24:04.346Z,-28
2023-01-19T08:25:10.631Z,-28
2023-01-19T08:26:16.890Z,-28
2023-01-19T08:27:23.203Z,-28
2023-01-19T08:28:29.443Z,-29
2023-01-19T08:29:35.716Z,-28
2023-01-19T08:30:41.990Z,-28
2023-01-19T08:31:48.308Z,-28
2023-01-19T08:32:54.612Z,-28
2023-01-19T08:34:00.939Z,-28
2023-01-19T08:35:07.110Z,-28
2023-01-19T08:36:13.356Z,-27
2023-01-19T08:37:18.644Z,-28
2023-01-19T08:38:24.967Z,-28
2023-01-19T08:39:31.284Z,-28
2023-01-19T08:40:37.463Z,-28
2023-01-19T08:41:43.735Z,-29
2023-01-19T08:42:50.097Z,-28
2023-01-19T08:43:56.294Z,-28
2023-01-19T08:45:02.562Z,-28
2023-01-19T08:46:08.837Z,-27
2023-01-19T08:47:15.155Z,-28
2023-01-19T08:48:21.376Z,-28
2023-01-19T08:49:27.649Z,-28
2023-01-19T08:50:32.942Z,-27
2023-01-19T08:51:39.222Z,-27
2023-01-19T08:52:45.490Z,-28
2023-01-19T08:53:51.894Z,-27
2023-01-19T08:54:58.029Z,-27
2023-01-19T08:56:04.367Z,-26
2023-01-19T08:57:10.585Z,-26
2023-01-19T08:58:17.002Z,-26
2023-01-19T08:59:23.229Z,-28
2023-01-19T09:00:29.576Z,-26
2023-01-19T09:01:35.814Z,-27
2023-01-19T09:02:42.083Z,-27
2023-01-19T09:03:48.466Z,-28
2023-01-19T09:04:53.731Z,-27
2023-01-19T09:05:59.932Z,-28
2023-01-19T09:07:06.284Z,-27
2023-01-19T09:09:18.788Z,-28
2023-01-19T09:10:24.920Z,-26
2023-01-19T09:11:31.350Z,-28
2023-01-19T09:12:37.533Z,-27
2023-01-19T09:13:43.744Z,-27
2023-01-19T09:14:50.049Z,-26
2023-01-19T09:15:56.240Z,-26
2023-01-19T09:17:02.512Z,-26
2023-01-19T09:18:08.784Z,-27
2023-01-19T09:19:14.081Z,-26
2023-01-19T09:20:20.346Z,-25
2023-01-19T09:21:26.654Z,-28
2023-01-19T09:22:32.909Z,-27
2023-01-19T09:23:39.180Z,-26
2023-01-19T09:24:45.452Z,-27
2023-01-19T09:25:51.713Z,-26
2023-01-19T09:26:57.987Z,-27
2023-01-19T09:28:04.270Z,-28
2023-01-19T09:29:10.535Z,-26
2023-01-19T09:30:16.805Z,-25
2023-01-19T09:31:23.090Z,-26
2023-01-19T09:32:29.399Z,-28
2023-01-19T09:33:34.641Z,-26
2023-01-19T09:34:40.914Z,-26
2023-01-19T09:35:47.201Z,-25
2023-01-19T09:36:53.469Z,-26
2023-01-19T09:37:59.875Z,-25
2023-01-19T09:39:06.041Z,-26
2023-01-19T09:40:12.280Z,-26
2023-01-19T09:41:18.576Z,-26
2023-01-19T09:42:24.818Z,-25
2023-01-19T09:43:31.093Z,-27
2023-01-19T09:44:37.371Z,-25
2023-01-19T09:45:43.645Z,-25
2023-01-19T09:46:49.944Z,-26
2023-01-19T09:47:55.197Z,-25
2023-01-19T09:49:01.589Z,-25
2023-01-19T09:50:07.749Z,-25
2023-01-19T09:51:14.021Z,-25
2023-01-19T09:52:20.300Z,-24
2023-01-19T09:53:26.563Z,-25
2023-01-19T09:54:31.871Z,-25
2023-01-19T09:55:37.149Z,-25
2023-01-19T09:56:43.446Z,-25
2023-01-19T09:57:48.784Z,-25
2023-01-19T09:58:54.028Z,-25
2023-01-19T10:00:00.350Z,-25
2023-01-19T10:01:06.619Z,-24
2023-01-19T10:02:12.840Z,-25
2023-01-19T10:03:19.113Z,-25
2023-01-19T10:04:25.383Z,-25
2023-01-19T10:05:31.654Z,-25
2023-01-19T10:06:37.930Z,-25
2023-01-19T10:07:44.197Z,-25
2023-01-19T10:08:50.470Z,-25
2023-01-19T10:09:56.747Z,-26
2023-01-19T10:11:03.010Z,-24
2023-01-19T10:12:09.294Z,-24
2023-01-19T10:13:14.676Z,-25
2023-01-19T10:14:20.853Z,-25
2023-01-19T10:15:27.113Z,-25
2023-01-19T10:16:33.387Z,-25
2023-01-19T10:17:39.665Z,-24
2023-01-19T10:18:45.938Z,-23
2023-01-19T10:19:52.279Z,-23
2023-01-19T10:20:58.496Z,-25
2023-01-19T10:22:04.757Z,-25
2023-01-19T10:23:11.029Z,-25
2023-01-19T10:24:17.309Z,-25
2023-01-19T10:25:23.579Z,-24
2023-01-19T10:26:29.925Z,-24
2023-01-19T10:27:35.157Z,-25
2023-01-19T10:28:41.405Z,-24
2023-01-19T10:29:47.713Z,-25
2023-01-19T10:30:53.955Z,-24
2023-01-19T10:32:00.238Z,-25
2023-01-19T10:33:05.562Z,-24
2023-01-19T10:34:10.816Z,-25
2023-01-19T10:35:17.095Z,-25
2023-01-19T10:36:23.359Z,-25
2023-01-19T10:37:29.629Z,-25
2023-01-19T10:38:34.929Z,-24
2023-01-19T10:39:40.246Z,-25
2023-01-19T10:40:46.496Z,-23
2023-01-19T10:41:52.767Z,-24
2023-01-19T10:42:59.185Z,-25
2023-01-19T10:44:05.311Z,-25
2023-01-19T10:45:11.585Z,-23
2023-01-19T10:46:17.856Z,-23
2023-01-19T10:47:24.132Z,-25
2023-01-19T10:48:30.412Z,-23
2023-01-19T10:49:36.674Z,-26
2023-01-19T10:50:42.967Z,-25
2023-01-19T10:51:49.235Z,-25
2023-01-19T10:52:55.661Z,-24
2023-01-19T10:54:01.768Z,-24
2023-01-19T10:55:07.076Z,-25
2023-01-19T10:56:13.367Z,-24
2023-01-19T10:57:19.614Z,-22
2023-01-19T10:58:25.876Z,-24
2023-01-19T10:59:32.221Z,-24
2023-01-19T11:00:38.435Z,-25
2023-01-19T11:01:43.725Z,-23
2023-01-19T11:02:49.024Z,-24
2023-01-19T11:03:55.292Z,-24
2023-01-19T11:05:01.575Z,-24
2023-01-19T11:06:07.908Z,-23
2023-01-19T11:07:13.123Z,-24
2023-01-19T11:08:18.460Z,-24
2023-01-19T11:09:24.755Z,-24
2023-01-19T11:10:30.990Z,-24
2023-01-19T11:11:37.233Z,-23
2023-01-19T11:12:43.493Z,-24
2023-01-19T11:13:49.773Z,-25
2023-01-19T11:14:56.072Z,-22
2023-01-19T11:16:02.319Z,-24
2023-01-19T11:17:08.590Z,-23
2023-01-19T11:18:14.863Z,-24
2023-01-19T11:19:21.129Z,-22
2023-01-19T11:20:27.445Z,-23
2023-01-19T11:21:33.686Z,-24
2023-01-19T11:22:38.999Z,-23
2023-01-19T11:23:45.260Z,-23
2023-01-19T11:24:51.528Z,-24
2023-01-19T11:25:57.796Z,-25
2023-01-19T11:27:04.123Z,-24
2023-01-19T11:28:10.332Z,-24
2023-01-19T11:29:16.604Z,-23
2023-01-19T11:30:21.924Z,-23
2023-01-19T11:31:27.199Z,-25
2023-01-19T11:32:32.499Z,-23
2023-01-19T11:33:37.819Z,-23
2023-01-19T11:34:44.055Z,-22
2023-01-19T11:35:50.429Z,-23
2023-01-19T11:36:56.603Z,-21
2023-01-19T11:38:02.891Z,-23
2023-01-19T11:39:09.146Z,-23
2023-01-19T11:40:15.484Z,-23
2023-01-19T11:41:21.800Z,-22
2023-01-19T11:42:27.985Z,-24
2023-01-19T11:43:34.236Z,-25
2023-01-19T11:44:40.508Z,-23
2023-01-19T11:45:46.778Z,-25
2023-01-19T11:46:53.057Z,-22
2023-01-19T11:47:58.598Z,-23
2023-01-19T11:49:04.620Z,-22
2023-01-19T11:50:10.887Z,-23
2023-01-19T11:51:17.284Z,-21
2023-01-19T11:52:23.439Z,-22
2023-01-19T11:54:35.985Z,-22
2023-01-19T11:55:42.284Z,-22
2023-01-19T11:56:48.520Z,-21
2023-01-19T11:57:54.805Z,-21
2023-01-19T11:59:01.075Z,-23
2023-01-19T12:00:07.386Z,-22
2023-01-19T12:01:13.603Z,-22
2023-01-19T12:02:18.897Z,-25
2023-01-19T12:03:25.172Z,-23
2023-01-19T12:04:31.495Z,-22
2023-01-19T12:05:37.748Z,-22
2023-01-19T12:06:43.984Z,-22
2023-01-19T12:07:50.326Z,-22
2023-01-19T12:08:56.641Z,-22
2023-01-19T12:10:02.820Z,-21
2023-01-19T12:11:09.073Z,-22
2023-01-19T12:12:15.351Z,-23
2023-01-19T12:13:21.629Z,-23
2023-01-19T12:14:27.897Z,-22
2023-01-19T12:15:34.184Z,-22
2023-01-19T12:16:39.479Z,-24
2023-01-19T12:17:44.766Z,-22
2023-01-19T12:18:51.065Z,-23
2023-01-19T12:19:57.306Z,-22
2023-01-19T12:21:03.565Z,-22
2023-01-19T12:22:09.847Z,-23
2023-01-19T12:23:16.109Z,-22
2023-01-19T12:24:22.384Z,-21
2023-01-19T12:25:28.664Z,-21
2023-01-19T12:26:33.954Z,-21
2023-01-19T12:27:39.239Z,-24
2023-01-19T12:28:45.511Z,-22
2023-01-19T12:29:51.793Z,-22
2023-01-19T12:30:58.084Z,-23
2023-01-19T12:32:03.349Z,-22
2023-01-19T12:33:09.628Z,-22
2023-01-19T12:34:15.925Z,-21
2023-01-19T12:35:22.179Z,-21
2023-01-19T12:36:28.443Z,-21
2023-01-19T12:37:34.726Z,-22
2023-01-19T12:38:40.997Z,-22
2023-01-19T12:39:47.264Z,-23
2023-01-19T12:40:53.532Z,-23
2023-01-19T12:41:59.808Z,-21
2023-01-19T12:43:06.077Z,-22
2023-01-19T12:44:12.349Z,-22
2023-01-19T12:45:18.621Z,-22
2023-01-19T12:46:23.936Z,-22
2023-01-19T12:47:30.237Z,-22
2023-01-19T12:48:36.461Z,-23
2023-01-19T12:49:42.723Z,-24
2023-01-19T12:50:49.003Z,-23
2023-01-19T12:51:55.270Z,-21
2023-01-19T12:53:01.552Z,-24
2023-01-19T12:54:07.972Z,-23
2023-01-19T12:55:14.090Z,-21
2023-01-19T12:56:20.361Z,-23
2023-01-19T12:57:26.635Z,-22
2023-01-19T12:58:32.934Z,-22
2023-01-19T12:59:39.172Z,-22
2023-01-19T13:00:44.465Z,-20
2023-01-19T13:01:50.740Z,-22
2023-01-19T13:02:57.012Z,-21
2023-01-19T13:04:03.291Z,-21
2023-01-19T13:05:09.547Z,-22
2023-01-19T13:06:15.824Z,-23
2023-01-19T13:07:22.098Z,-22
2023-01-19T13:08:28.381Z,-22
2023-01-19T13:09:34.645Z,-21
2023-01-19T13:10:40.920Z,-22
2023-01-19T13:11:47.190Z,-22
2023-01-19T13:12:53.453Z,-22
2023-01-19T13:13:59.754Z,-24
2023-01-19T13:15:05.020Z,-23
2023-01-19T13:16:11.323Z,-23
2023-01-19T13:17:17.565Z,-22
2023-01-19T13:18:23.850Z,-22
2023-01-19T13:19:30.108Z,-23
2023-01-19T13:20:36.377Z,-25
2023-01-19T13:21:42.674Z,-23
2023-01-19T13:22:48.928Z,-23
2023-01-19T13:23:55.195Z,-21
2023-01-19T13:25:01.483Z,-24
2023-01-19T13:26:07.759Z,-23
2023-01-19T13:27:14.027Z,-23
2023-01-19T13:28:20.293Z,-22
2023-01-19T13:29:25.576Z,-22
2023-01-19T13:30:30.912Z,-22
2023-01-19T13:31:36.173Z,-23
2023-01-19T13:32:42.440Z,-24
2023-01-19T13:33:48.712Z,-23
2023-01-19T13:34:54.996Z,-23
2023-01-19T13:36:01.255Z,-23
2023-01-19T13:37:07.542Z,-24
2023-01-19T13:38:13.805Z,-23
2023-01-19T13:39:20.079Z,-24
2023-01-19T13:40:26.359Z,-23
2023-01-19T13:41:32.614Z,-23
2023-01-19T13:42:38.884Z,-24
2023-01-19T13:43:44.219Z,-23
2023-01-19T13:44:49.469Z,-24
2023-01-19T13:45:55.744Z,-25
2023-01-19T13:47:02.024Z,-24
2023-01-19T13:48:08.457Z,-22
2023-01-19T13:49:14.579Z,-23
2023-01-19T13:50:20.836Z,-24
2023-01-19T13:51:27.112Z,-23
2023-01-19T13:52:33.385Z,-25
2023-01-19T13:53:39.650Z,-23
2023-01-19T13:54:45.942Z,-24
2023-01-19T13:55:52.196Z,-23
2023-01-19T13:56:58.471Z,-24
2023-01-19T13:58:04.749Z,-24
2023-01-19T13:59:10.039Z,-24
2023-01-19T14:00:16.313Z,-23
2023-01-19T14:01:22.588Z,-25
2023-01-19T14:02:28.895Z,-25
2023-01-19T14:03:35.123Z,-23
2023-01-19T14:04:41.396Z,-25
2023-01-19T14:05:47.774Z,-25
2023-01-19T14:06:52.967Z,-24
2023-01-19T14:07:58.259Z,-24
2023-01-19T14:09:04.532Z,-23
2023-01-19T14:10:10.802Z,-24
2023-01-19T14:11:17.077Z,-23
2023-01-19T14:12:23.353Z,-25
2023-01-19T14:13:28.642Z,-24
2023-01-19T14:14:33.937Z,-23
2023-01-19T14:15:40.205Z,-23
2023-01-19T14:16:46.476Z,-23
2023-01-19T14:17:52.749Z,-23
2023-01-19T14:18:59.019Z,-24
2023-01-19T14:20:05.308Z,-23
2023-01-19T14:21:11.572Z,-23
2023-01-19T14:22:17.864Z,-23
2023-01-19T14:23:24.111Z,-24
2023-01-19T14:24:30.400Z,-24
2023-01-19T14:25:36.661Z,-23
2023-01-19T14:26:42.930Z,-25
2023-01-19T14:27:49.211Z,-24
2023-01-19T14:28:54.490Z,-24
2023-01-19T14:30:00.815Z,-25
2023-01-19T14:31:07.040Z,-23
2023-01-19T14:32:13.302Z,-24
2023-01-19T14:33:19.584Z,-23
2023-01-19T14:34:25.857Z,-24
2023-01-19T14:35:32.147Z,-23
2023-01-19T14:36:38.407Z,-26
2023-01-19T14:37:44.656Z,-25
2023-01-19T14:38:50.945Z,-24
2023-01-19T14:39:57.262Z,-25
2023-01-19T14:41:03.537Z,-24
2023-01-19T14:42:09.754Z,-24
2023-01-19T14:43:15.064Z,-24
2023-01-19T14:44:21.321Z,-24
2023-01-19T14:45:27.625Z,-24
2023-01-19T14:46:32.908Z,-25
2023-01-19T14:47:38.181Z,-23
2023-01-19T14:48:44.473Z,-24
2023-01-19T14:49:50.792Z,-24
2023-01-19T14:50:57.012Z,-24
2023-01-19T14:52:02.408Z,-23
2023-01-19T14:53:07.599Z,-24
2023-01-19T14:54:13.862Z,-24
2023-01-19T14:55:20.144Z,-23
2023-01-19T14:56:26.435Z,-25
2023-01-19T14:57:32.681Z,-23
2023-01-19T14:58:38.949Z,-25
2023-01-19T14:59:45.219Z,-25
2023-01-19T15:00:51.496Z,-24
2023-01-19T15:01:57.771Z,-25
2023-01-19T15:03:04.068Z,-25
2023-01-19T15:04:10.318Z,-24
2023-01-19T15:05:16.597Z,-24
2023-01-19T15:06:22.863Z,-25
2023-01-19T15:07:28.144Z,-25
2023-01-19T15:08:34.425Z,-25
2023-01-19T15:09:40.698Z,-25
2023-01-19T15:10:46.963Z,-25
2023-01-19T15:11:53.270Z,-24
2023-01-19T15:12:59.509Z,-25
2023-01-19T15:14:05.785Z,-25
2023-01-19T15:15:12.055Z,-25
2023-01-19T15:16:18.332Z,-24
2023-01-19T15:17:24.599Z,-25
2023-01-19T15:18:30.879Z,-24